sensor_id;sensor_type;location;lat;lon;timestamp;P1;durP1;ratioP1;P2;durP2;ratioP2
56299;SDS011;42209;6.376;-10.782;2022-10-16T00:01:40;1.38;;;0.15;;
56299;SDS011;42209;6.376;-10.782;2022-10-16T00:06:37;0.98;;;0.20;;
56299;SDS011;42209;6.376;-10.782;2022-10-16T00:09:06;0.45;;;0.20;;
56299;SDS011;42209;6.376;-10.782;2022-10-16T00:11:37;0.30;;;0.10;;
56299;SDS011;42209;6.376;-10.782;2022-10-16T00:14:07;0.40;;;0.20;;
56299;SDS011;42209;6.376;-10.782;2022-10-16T00:16:38;0.60;;;0.10;;
56299;SDS011;42209;6.376;-10.782;2022-10-16T00:21:35;0.95;;;0.20;;
56299;SDS011;42209;6.376;-10.782;2022-10-16T00:24:05;0.85;;;0.22;;
56299;SDS011;42209;6.376;-10.782;2022-10-16T00:26:36;0.90;;;0.10;;
56299;SDS011;42209;6.376;-10.782;2022-10-16T00:29:05;1.17;;;0.10;;
56299;SDS011;42209;6.376;-10.782;2022-10-16T00:34:01;0.88;;;0.20;;
56299;SDS011;42209;6.376;-10.782;2022-10-16T00:36:29;0.55;;;0.20;;
56299;SDS011;42209;6.376;-10.782;2022-10-16T00:38:58;0.93;;;0.15;;
56299;SDS011;42209;6.376;-10.782;2022-10-16T00:41:31;0.22;;;0.10;;
56299;SDS011;42209;6.376;-10.782;2022-10-16T00:44:01;0.50;;;0.10;;
56299;SDS011;42209;6.376;-10.782;2022-10-16T00:49:08;0.45;;;0.15;;
56299;SDS011;42209;6.376;-10.782;2022-10-16T00:51:49;0.70;;;0.15;;
56299;SDS011;42209;6.376;-10.782;2022-10-16T00:54:21;0.30;;;0.10;;
56299;SDS011;42209;6.376;-10.782;2022-10-16T00:56:52;0.50;;;0.20;;
56299;SDS011;42209;6.376;-10.782;2022-10-16T00:59:29;0.88;;;0.10;;
56299;SDS011;42209;6.376;-10.782;2022-10-16T01:02:05;1.50;;;0.10;;
56299;SDS011;42209;6.376;-10.782;2022-10-16T01:04:37;0.30;;;0.10;;
56299;SDS011;42209;6.376;-10.782;2022-10-16T01:09:53;0.10;;;0.10;;
56299;SDS011;42209;6.376;-10.782;2022-10-16T01:12:23;0.30;;;0.10;;
56299;SDS011;42209;6.376;-10.782;2022-10-16T01:15:30;1.13;;;0.20;;
56299;SDS011;42209;6.376;-10.782;2022-10-16T01:21:16;0.15;;;0.10;;
56299;SDS011;42209;6.376;-10.782;2022-10-16T01:23:57;0.25;;;0.10;;
56299;SDS011;42209;6.376;-10.782;2022-10-16T01:29:42;0.57;;;0.13;;
56299;SDS011;42209;6.376;-10.782;2022-10-16T01:32:33;0.30;;;0.10;;
56299;SDS011;42209;6.376;-10.782;2022-10-16T01:35:11;0.30;;;0.10;;
56299;SDS011;42209;6.376;-10.782;2022-10-16T01:37:51;0.30;;;0.10;;
56299;SDS011;42209;6.376;-10.782;2022-10-16T01:40:29;0.40;;;0.10;;
56299;SDS011;42209;6.376;-10.782;2022-10-16T01:43:00;0.77;;;0.10;;
56299;SDS011;42209;6.376;-10.782;2022-10-16T01:45:32;0.90;;;0.28;;
56299;SDS011;42209;6.376;-10.782;2022-10-16T01:48:02;0.30;;;0.10;;
56299;SDS011;42209;6.376;-10.782;2022-10-16T01:50:34;1.05;;;0.10;;
56299;SDS011;42209;6.376;-10.782;2022-10-16T01:53:05;0.70;;;0.20;;
56299;SDS011;42209;6.376;-10.782;2022-10-16T01:55:39;0.40;;;0.10;;
56299;SDS011;42209;6.376;-10.782;2022-10-16T01:58:12;0.73;;;0.20;;
56299;SDS011;42209;6.376;-10.782;2022-10-16T02:00:42;0.57;;;0.10;;
56299;SDS011;42209;6.376;-10.782;2022-10-16T02:03:13;0.47;;;0.20;;
56299;SDS011;42209;6.376;-10.782;2022-10-16T02:08:39;0.95;;;0.20;;
56299;SDS011;42209;6.376;-10.782;2022-10-16T02:11:07;0.50;;;0.10;;
56299;SDS011;42209;6.376;-10.782;2022-10-16T02:13:37;0.85;;;0.10;;
56299;SDS011;42209;6.376;-10.782;2022-10-16T02:16:10;0.47;;;0.17;;
56299;SDS011;42209;6.376;-10.782;2022-10-16T02:18:40;0.70;;;0.10;;
56299;SDS011;42209;6.376;-10.782;2022-10-16T02:26:28;0.77;;;0.20;;
56299;SDS011;42209;6.376;-10.782;2022-10-16T02:29:10;0.80;;;0.10;;
56299;SDS011;42209;6.376;-10.782;2022-10-16T02:31:43;0.40;;;0.10;;
56299;SDS011;42209;6.376;-10.782;2022-10-16T02:34:16;0.30;;;0.10;;
56299;SDS011;42209;6.376;-10.782;2022-10-16T02:36:48;0.68;;;0.10;;
56299;SDS011;42209;6.376;-10.782;2022-10-16T02:39:17;0.55;;;0.22;;
56299;SDS011;42209;6.376;-10.782;2022-10-16T02:41:47;0.80;;;0.20;;
56299;SDS011;42209;6.376;-10.782;2022-10-16T02:44:15;0.85;;;0.10;;
56299;SDS011;42209;6.376;-10.782;2022-10-16T02:46:43;0.60;;;0.20;;
56299;SDS011;42209;6.376;-10.782;2022-10-16T02:49:11;0.50;;;0.30;;
56299;SDS011;42209;6.376;-10.782;2022-10-16T02:51:39;0.30;;;0.10;;
56299;SDS011;42209;6.376;-10.782;2022-10-16T02:54:08;0.82;;;0.25;;
56299;SDS011;42209;6.376;-10.782;2022-10-16T02:56:36;0.40;;;0.20;;
56299;SDS011;42209;6.376;-10.782;2022-10-16T02:59:04;0.75;;;0.28;;
56299;SDS011;42209;6.376;-10.782;2022-10-16T03:01:32;0.80;;;0.25;;
56299;SDS011;42209;6.376;-10.782;2022-10-16T03:04:02;0.28;;;0.10;;
56299;SDS011;42209;6.376;-10.782;2022-10-16T03:06:30;0.55;;;0.10;;
56299;SDS011;42209;6.376;-10.782;2022-10-16T03:08:58;1.02;;;0.20;;
56299;SDS011;42209;6.376;-10.782;2022-10-16T03:11:27;0.65;;;0.40;;
56299;SDS011;42209;6.376;-10.782;2022-10-16T03:13:55;0.60;;;0.10;;
56299;SDS011;42209;6.376;-10.782;2022-10-16T03:16:23;0.55;;;0.20;;
56299;SDS011;42209;6.376;-10.782;2022-10-16T03:18:51;0.73;;;0.22;;
56299;SDS011;42209;6.376;-10.782;2022-10-16T03:21:19;0.50;;;0.10;;
56299;SDS011;42209;6.376;-10.782;2022-10-16T03:23:47;0.30;;;0.20;;
56299;SDS011;42209;6.376;-10.782;2022-10-16T03:26:15;1.02;;;0.10;;
56299;SDS011;42209;6.376;-10.782;2022-10-16T03:28:44;0.17;;;0.03;;
56299;SDS011;42209;6.376;-10.782;2022-10-16T03:31:12;0.73;;;0.10;;
56299;SDS011;42209;6.376;-10.782;2022-10-16T03:33:40;0.80;;;0.10;;
56299;SDS011;42209;6.376;-10.782;2022-10-16T03:36:08;0.35;;;0.10;;
56299;SDS011;42209;6.376;-10.782;2022-10-16T03:38:36;0.93;;;0.10;;
56299;SDS011;42209;6.376;-10.782;2022-10-16T03:41:05;0.52;;;0.10;;
56299;SDS011;42209;6.376;-10.782;2022-10-16T03:43:33;0.47;;;0.20;;
56299;SDS011;42209;6.376;-10.782;2022-10-16T03:46:01;0.40;;;0.10;;
56299;SDS011;42209;6.376;-10.782;2022-10-16T03:48:30;0.45;;;0.10;;
56299;SDS011;42209;6.376;-10.782;2022-10-16T03:50:58;0.57;;;0.13;;
56299;SDS011;42209;6.376;-10.782;2022-10-16T03:53:26;1.95;;;0.10;;
56299;SDS011;42209;6.376;-10.782;2022-10-16T03:55:54;0.30;;;0.10;;
56299;SDS011;42209;6.376;-10.782;2022-10-16T03:58:22;0.57;;;0.10;;
56299;SDS011;42209;6.376;-10.782;2022-10-16T04:00:51;0.65;;;0.20;;
56299;SDS011;42209;6.376;-10.782;2022-10-16T04:03:19;0.35;;;0.10;;
56299;SDS011;42209;6.376;-10.782;2022-10-16T04:05:48;0.30;;;0.10;;
56299;SDS011;42209;6.376;-10.782;2022-10-16T04:08:16;0.20;;;0.10;;
56299;SDS011;42209;6.376;-10.782;2022-10-16T04:10:45;0.38;;;0.10;;
56299;SDS011;42209;6.376;-10.782;2022-10-16T04:13:13;0.43;;;0.20;;
56299;SDS011;42209;6.376;-10.782;2022-10-16T04:15:41;0.22;;;0.10;;
56299;SDS011;42209;6.376;-10.782;2022-10-16T04:18:09;0.90;;;0.40;;
56299;SDS011;42209;6.376;-10.782;2022-10-16T04:20:37;0.43;;;0.10;;
56299;SDS011;42209;6.376;-10.782;2022-10-16T04:23:06;0.20;;;0.10;;
56299;SDS011;42209;6.376;-10.782;2022-10-16T04:25:34;0.60;;;0.10;;
56299;SDS011;42209;6.376;-10.782;2022-10-16T04:28:02;0.40;;;0.10;;
56299;SDS011;42209;6.376;-10.782;2022-10-16T04:30:30;0.55;;;0.10;;
56299;SDS011;42209;6.376;-10.782;2022-10-16T04:32:58;0.30;;;0.10;;
56299;SDS011;42209;6.376;-10.782;2022-10-16T04:35:31;0.80;;;0.10;;
56299;SDS011;42209;6.376;-10.782;2022-10-16T04:38:00;0.28;;;0.10;;
56299;SDS011;42209;6.376;-10.782;2022-10-16T04:40:28;0.25;;;0.10;;
56299;SDS011;42209;6.376;-10.782;2022-10-16T04:42:56;0.40;;;0.08;;
56299;SDS011;42209;6.376;-10.782;2022-10-16T04:45:24;0.20;;;0.10;;
56299;SDS011;42209;6.376;-10.782;2022-10-16T04:47:53;0.30;;;0.10;;
56299;SDS011;42209;6.376;-10.782;2022-10-16T04:50:24;0.50;;;0.10;;
56299;SDS011;42209;6.376;-10.782;2022-10-16T04:53:04;0.43;;;0.10;;
56299;SDS011;42209;6.376;-10.782;2022-10-16T04:55:33;0.35;;;0.10;;
56299;SDS011;42209;6.376;-10.782;2022-10-16T04:58:01;0.65;;;0.10;;
56299;SDS011;42209;6.376;-10.782;2022-10-16T05:00:30;0.40;;;0.10;;
56299;SDS011;42209;6.376;-10.782;2022-10-16T05:02:58;0.52;;;0.10;;
56299;SDS011;42209;6.376;-10.782;2022-10-16T05:05:27;0.22;;;0.10;;
56299;SDS011;42209;6.376;-10.782;2022-10-16T05:07:55;1.08;;;0.10;;
56299;SDS011;42209;6.376;-10.782;2022-10-16T05:10:23;0.40;;;0.10;;
56299;SDS011;42209;6.376;-10.782;2022-10-16T05:12:51;0.32;;;0.10;;
56299;SDS011;42209;6.376;-10.782;2022-10-16T05:15:20;0.45;;;0.10;;
56299;SDS011;42209;6.376;-10.782;2022-10-16T05:17:51;0.38;;;0.10;;
56299;SDS011;42209;6.376;-10.782;2022-10-16T05:20:20;0.30;;;0.10;;
56299;SDS011;42209;6.376;-10.782;2022-10-16T05:22:49;0.47;;;0.10;;
56299;SDS011;42209;6.376;-10.782;2022-10-16T05:25:17;0.40;;;0.10;;
56299;SDS011;42209;6.376;-10.782;2022-10-16T05:27:48;0.43;;;0.10;;
56299;SDS011;42209;6.376;-10.782;2022-10-16T05:30:17;0.55;;;0.00;;
56299;SDS011;42209;6.376;-10.782;2022-10-16T05:32:46;0.38;;;0.10;;
56299;SDS011;42209;6.376;-10.782;2022-10-16T05:35:18;0.20;;;0.08;;
56299;SDS011;42209;6.376;-10.782;2022-10-16T05:37:47;0.30;;;0.10;;
56299;SDS011;42209;6.376;-10.782;2022-10-16T05:40:16;0.95;;;0.20;;
56299;SDS011;42209;6.376;-10.782;2022-10-16T05:42:44;1.00;;;0.20;;
56299;SDS011;42209;6.376;-10.782;2022-10-16T05:45:12;0.45;;;0.10;;
56299;SDS011;42209;6.376;-10.782;2022-10-16T05:47:40;0.40;;;0.10;;
56299;SDS011;42209;6.376;-10.782;2022-10-16T05:50:08;0.43;;;0.10;;
56299;SDS011;42209;6.376;-10.782;2022-10-16T05:52:37;0.40;;;0.10;;
56299;SDS011;42209;6.376;-10.782;2022-10-16T05:55:05;0.88;;;0.10;;
56299;SDS011;42209;6.376;-10.782;2022-10-16T05:57:33;0.65;;;0.10;;
56299;SDS011;42209;6.376;-10.782;2022-10-16T06:00:01;0.30;;;0.10;;
56299;SDS011;42209;6.376;-10.782;2022-10-16T06:02:38;0.80;;;0.30;;
56299;SDS011;42209;6.376;-10.782;2022-10-16T06:05:06;0.30;;;0.10;;
56299;SDS011;42209;6.376;-10.782;2022-10-16T06:07:35;0.98;;;0.00;;
56299;SDS011;42209;6.376;-10.782;2022-10-16T06:10:04;0.20;;;0.00;;
56299;SDS011;42209;6.376;-10.782;2022-10-16T06:12:32;0.35;;;0.10;;
56299;SDS011;42209;6.376;-10.782;2022-10-16T06:15:00;0.30;;;0.05;;
56299;SDS011;42209;6.376;-10.782;2022-10-16T06:17:28;1.20;;;0.10;;
56299;SDS011;42209;6.376;-10.782;2022-10-16T06:19:57;0.50;;;0.20;;
56299;SDS011;42209;6.376;-10.782;2022-10-16T06:22:25;1.40;;;0.10;;
56299;SDS011;42209;6.376;-10.782;2022-10-16T06:24:53;0.60;;;0.22;;
56299;SDS011;42209;6.376;-10.782;2022-10-16T06:27:21;0.47;;;0.10;;
56299;SDS011;42209;6.376;-10.782;2022-10-16T06:29:49;0.77;;;0.20;;
56299;SDS011;42209;6.376;-10.782;2022-10-16T06:32:18;0.47;;;0.10;;
56299;SDS011;42209;6.376;-10.782;2022-10-16T06:34:46;0.50;;;0.10;;
56299;SDS011;42209;6.376;-10.782;2022-10-16T06:37:14;0.40;;;0.10;;
56299;SDS011;42209;6.376;-10.782;2022-10-16T06:39:42;0.30;;;0.10;;
56299;SDS011;42209;6.376;-10.782;2022-10-16T06:42:10;0.47;;;0.10;;
56299;SDS011;42209;6.376;-10.782;2022-10-16T06:44:38;0.80;;;0.28;;
56299;SDS011;42209;6.376;-10.782;2022-10-16T06:47:07;0.52;;;0.10;;
56299;SDS011;42209;6.376;-10.782;2022-10-16T06:49:35;0.30;;;0.17;;
56299;SDS011;42209;6.376;-10.782;2022-10-16T06:52:03;0.55;;;0.10;;
56299;SDS011;42209;6.376;-10.782;2022-10-16T06:54:31;1.30;;;0.10;;
56299;SDS011;42209;6.376;-10.782;2022-10-16T06:57:08;0.30;;;0.10;;
56299;SDS011;42209;6.376;-10.782;2022-10-16T07:02:04;0.53;;;0.20;;
56299;SDS011;42209;6.376;-10.782;2022-10-16T07:04:33;0.82;;;0.30;;
56299;SDS011;42209;6.376;-10.782;2022-10-16T07:07:02;0.85;;;0.10;;
56299;SDS011;42209;6.376;-10.782;2022-10-16T07:09:35;0.50;;;0.20;;
56299;SDS011;42209;6.376;-10.782;2022-10-16T07:12:03;0.70;;;0.15;;
56299;SDS011;42209;6.376;-10.782;2022-10-16T07:14:31;0.30;;;0.10;;
56299;SDS011;42209;6.376;-10.782;2022-10-16T07:16:59;0.73;;;0.20;;
56299;SDS011;42209;6.376;-10.782;2022-10-16T07:19:28;0.57;;;0.20;;
56299;SDS011;42209;6.376;-10.782;2022-10-16T07:22:00;0.57;;;0.20;;
56299;SDS011;42209;6.376;-10.782;2022-10-16T07:26:56;0.30;;;0.10;;
56299;SDS011;42209;6.376;-10.782;2022-10-16T07:29:24;0.77;;;0.20;;
56299;SDS011;42209;6.376;-10.782;2022-10-16T07:31:52;0.30;;;0.10;;
56299;SDS011;42209;6.376;-10.782;2022-10-16T07:34:21;0.57;;;0.10;;
56299;SDS011;42209;6.376;-10.782;2022-10-16T07:36:49;0.35;;;0.10;;
56299;SDS011;42209;6.376;-10.782;2022-10-16T07:39:18;0.75;;;0.20;;
56299;SDS011;42209;6.376;-10.782;2022-10-16T07:41:46;0.20;;;0.10;;
56299;SDS011;42209;6.376;-10.782;2022-10-16T07:44:15;0.50;;;0.10;;
56299;SDS011;42209;6.376;-10.782;2022-10-16T07:46:43;0.40;;;0.10;;
56299;SDS011;42209;6.376;-10.782;2022-10-16T07:49:11;1.30;;;0.20;;
56299;SDS011;42209;6.376;-10.782;2022-10-16T07:51:40;0.55;;;0.10;;
56299;SDS011;42209;6.376;-10.782;2022-10-16T07:54:09;0.45;;;0.17;;
56299;SDS011;42209;6.376;-10.782;2022-10-16T07:56:37;0.80;;;0.30;;
56299;SDS011;42209;6.376;-10.782;2022-10-16T07:59:10;0.98;;;0.20;;
56299;SDS011;42209;6.376;-10.782;2022-10-16T08:01:38;0.68;;;0.10;;
56299;SDS011;42209;6.376;-10.782;2022-10-16T08:04:06;0.70;;;0.20;;
56299;SDS011;42209;6.376;-10.782;2022-10-16T08:06:36;0.50;;;0.20;;
56299;SDS011;42209;6.376;-10.782;2022-10-16T08:09:06;0.63;;;0.22;;
56299;SDS011;42209;6.376;-10.782;2022-10-16T08:11:35;1.58;;;0.30;;
56299;SDS011;42209;6.376;-10.782;2022-10-16T08:14:03;1.25;;;0.20;;
56299;SDS011;42209;6.376;-10.782;2022-10-16T08:16:31;0.40;;;0.20;;
56299;SDS011;42209;6.376;-10.782;2022-10-16T08:19:00;1.08;;;0.30;;
56299;SDS011;42209;6.376;-10.782;2022-10-16T08:21:28;1.13;;;0.13;;
56299;SDS011;42209;6.376;-10.782;2022-10-16T08:23:56;0.80;;;0.20;;
56299;SDS011;42209;6.376;-10.782;2022-10-16T08:26:25;0.77;;;0.20;;
56299;SDS011;42209;6.376;-10.782;2022-10-16T08:28:54;0.57;;;0.20;;
56299;SDS011;42209;6.376;-10.782;2022-10-16T08:31:23;1.15;;;0.40;;
56299;SDS011;42209;6.376;-10.782;2022-10-16T08:33:52;1.45;;;0.20;;
56299;SDS011;42209;6.376;-10.782;2022-10-16T08:36:20;0.93;;;0.20;;
56299;SDS011;42209;6.376;-10.782;2022-10-16T08:38:49;0.85;;;0.35;;
56299;SDS011;42209;6.376;-10.782;2022-10-16T08:49:16;1.58;;;0.40;;
56299;SDS011;42209;6.376;-10.782;2022-10-16T08:54:21;1.17;;;0.30;;
56299;SDS011;42209;6.376;-10.782;2022-10-16T08:57:12;0.80;;;0.40;;
56299;SDS011;42209;6.376;-10.782;2022-10-16T08:59:51;1.10;;;0.40;;
56299;SDS011;42209;6.376;-10.782;2022-10-16T09:02:36;1.00;;;0.20;;
56299;SDS011;42209;6.376;-10.782;2022-10-16T09:05:20;0.70;;;0.30;;
56299;SDS011;42209;6.376;-10.782;2022-10-16T09:21:36;1.02;;;0.45;;
56299;SDS011;42209;6.376;-10.782;2022-10-16T09:24:19;1.27;;;0.40;;
56299;SDS011;42209;6.376;-10.782;2022-10-16T09:26:54;1.45;;;0.40;;
56299;SDS011;42209;6.376;-10.782;2022-10-16T09:29:22;2.80;;;0.52;;
56299;SDS011;42209;6.376;-10.782;2022-10-16T09:31:51;0.73;;;0.32;;
56299;SDS011;42209;6.376;-10.782;2022-10-16T09:34:32;1.25;;;0.40;;
56299;SDS011;42209;6.376;-10.782;2022-10-16T09:37:04;1.77;;;0.40;;
56299;SDS011;42209;6.376;-10.782;2022-10-16T09:39:50;0.70;;;0.30;;
56299;SDS011;42209;6.376;-10.782;2022-10-16T09:42:21;1.27;;;0.38;;
56299;SDS011;42209;6.376;-10.782;2022-10-16T09:44:57;1.00;;;0.45;;
56299;SDS011;42209;6.376;-10.782;2022-10-16T09:47:26;1.05;;;0.55;;
56299;SDS011;42209;6.376;-10.782;2022-10-16T09:49:57;1.38;;;0.63;;
56299;SDS011;42209;6.376;-10.782;2022-10-16T09:52:27;1.52;;;0.50;;
56299;SDS011;42209;6.376;-10.782;2022-10-16T09:55:00;1.30;;;0.50;;
56299;SDS011;42209;6.376;-10.782;2022-10-16T09:57:52;1.27;;;0.57;;
56299;SDS011;42209;6.376;-10.782;2022-10-16T10:00:23;0.77;;;0.32;;
56299;SDS011;42209;6.376;-10.782;2022-10-16T10:02:52;1.52;;;0.30;;
56299;SDS011;42209;6.376;-10.782;2022-10-16T10:05:27;0.60;;;0.30;;
56299;SDS011;42209;6.376;-10.782;2022-10-16T10:07:59;1.50;;;0.30;;
56299;SDS011;42209;6.376;-10.782;2022-10-16T10:10:30;0.93;;;0.30;;
56299;SDS011;42209;6.376;-10.782;2022-10-16T10:13:22;1.20;;;0.40;;
56299;SDS011;42209;6.376;-10.782;2022-10-16T10:15:52;1.00;;;0.50;;
56299;SDS011;42209;6.376;-10.782;2022-10-16T10:18:21;2.28;;;0.75;;
56299;SDS011;42209;6.376;-10.782;2022-10-16T10:20:57;0.80;;;0.40;;
56299;SDS011;42209;6.376;-10.782;2022-10-16T10:23:28;1.10;;;0.38;;
56299;SDS011;42209;6.376;-10.782;2022-10-16T10:25:59;2.22;;;0.50;;
56299;SDS011;42209;6.376;-10.782;2022-10-16T10:33:53;1.05;;;0.45;;
56299;SDS011;42209;6.376;-10.782;2022-10-16T10:36:39;0.98;;;0.50;;
56299;SDS011;42209;6.376;-10.782;2022-10-16T10:47:13;1.63;;;0.82;;
56299;SDS011;42209;6.376;-10.782;2022-10-16T10:55:20;1.08;;;0.47;;
56299;SDS011;42209;6.376;-10.782;2022-10-16T10:58:15;0.93;;;0.40;;
56299;SDS011;42209;6.376;-10.782;2022-10-16T11:09:21;0.95;;;0.30;;
56299;SDS011;42209;6.376;-10.782;2022-10-16T11:12:15;0.98;;;0.40;;
56299;SDS011;42209;6.376;-10.782;2022-10-16T11:15:07;0.75;;;0.20;;
56299;SDS011;42209;6.376;-10.782;2022-10-16T11:17:48;1.73;;;0.63;;
56299;SDS011;42209;6.376;-10.782;2022-10-16T11:20:24;1.80;;;0.40;;
56299;SDS011;42209;6.376;-10.782;2022-10-16T11:23:02;1.98;;;0.30;;
56299;SDS011;42209;6.376;-10.782;2022-10-16T11:25:42;2.05;;;0.82;;
56299;SDS011;42209;6.376;-10.782;2022-10-16T11:31:10;0.98;;;0.32;;
56299;SDS011;42209;6.376;-10.782;2022-10-16T11:39:02;1.35;;;0.60;;
56299;SDS011;42209;6.376;-10.782;2022-10-16T11:46:40;2.35;;;0.82;;
56299;SDS011;42209;6.376;-10.782;2022-10-16T11:49:34;2.70;;;0.60;;
56299;SDS011;42209;6.376;-10.782;2022-10-16T11:54:56;1.00;;;0.40;;
56299;SDS011;42209;6.376;-10.782;2022-10-16T11:57:42;1.73;;;0.60;;
56299;SDS011;42209;6.376;-10.782;2022-10-16T12:00:37;1.42;;;0.40;;
56299;SDS011;42209;6.376;-10.782;2022-10-16T12:06:23;2.63;;;0.50;;
56299;SDS011;42209;6.376;-10.782;2022-10-16T12:08:51;0.98;;;0.47;;
56299;SDS011;42209;6.376;-10.782;2022-10-16T12:14:06;2.75;;;1.13;;
56299;SDS011;42209;6.376;-10.782;2022-10-16T12:19:29;1.83;;;0.70;;
56299;SDS011;42209;6.376;-10.782;2022-10-16T12:22:01;1.42;;;0.57;;
56299;SDS011;42209;6.376;-10.782;2022-10-16T12:24:37;3.30;;;0.90;;
56299;SDS011;42209;6.376;-10.782;2022-10-16T12:27:30;2.58;;;0.80;;
56299;SDS011;42209;6.376;-10.782;2022-10-16T12:30:00;2.20;;;0.73;;
56299;SDS011;42209;6.376;-10.782;2022-10-16T12:32:32;2.72;;;1.00;;
56299;SDS011;42209;6.376;-10.782;2022-10-16T12:35:18;2.17;;;0.77;;
56299;SDS011;42209;6.376;-10.782;2022-10-16T12:37:52;1.52;;;0.65;;
56299;SDS011;42209;6.376;-10.782;2022-10-16T12:42:52;1.92;;;0.63;;
56299;SDS011;42209;6.376;-10.782;2022-10-16T12:45:30;1.73;;;0.60;;
56299;SDS011;42209;6.376;-10.782;2022-10-16T12:48:01;1.55;;;0.80;;
56299;SDS011;42209;6.376;-10.782;2022-10-16T12:50:34;1.90;;;0.60;;
56299;SDS011;42209;6.376;-10.782;2022-10-16T12:53:17;1.80;;;0.60;;
56299;SDS011;42209;6.376;-10.782;2022-10-16T12:55:52;2.80;;;0.63;;
56299;SDS011;42209;6.376;-10.782;2022-10-16T13:12:25;2.25;;;0.88;;
56299;SDS011;42209;6.376;-10.782;2022-10-16T13:29:01;1.23;;;0.50;;
56299;SDS011;42209;6.376;-10.782;2022-10-16T13:31:30;2.55;;;0.52;;
56299;SDS011;42209;6.376;-10.782;2022-10-16T13:33:59;2.63;;;0.93;;
56299;SDS011;42209;6.376;-10.782;2022-10-16T13:39:23;2.05;;;0.70;;
56299;SDS011;42209;6.376;-10.782;2022-10-16T13:42:06;1.70;;;0.50;;
56299;SDS011;42209;6.376;-10.782;2022-10-16T13:44:51;1.90;;;0.60;;
56299;SDS011;42209;6.376;-10.782;2022-10-16T13:47:21;2.15;;;0.60;;
56299;SDS011;42209;6.376;-10.782;2022-10-16T13:49:59;1.75;;;0.60;;
56299;SDS011;42209;6.376;-10.782;2022-10-16T13:52:33;3.30;;;0.85;;
56299;SDS011;42209;6.376;-10.782;2022-10-16T13:55:01;2.00;;;0.77;;
56299;SDS011;42209;6.376;-10.782;2022-10-16T13:57:30;1.95;;;0.70;;
56299;SDS011;42209;6.376;-10.782;2022-10-16T13:59:58;1.42;;;0.50;;
56299;SDS011;42209;6.376;-10.782;2022-10-16T14:02:33;3.13;;;1.13;;
56299;SDS011;42209;6.376;-10.782;2022-10-16T14:05:07;2.33;;;0.73;;
56299;SDS011;42209;6.376;-10.782;2022-10-16T14:07:37;1.80;;;0.60;;
56299;SDS011;42209;6.376;-10.782;2022-10-16T14:10:07;2.28;;;0.50;;
56299;SDS011;42209;6.376;-10.782;2022-10-16T14:13:04;3.47;;;0.88;;
56299;SDS011;42209;6.376;-10.782;2022-10-16T14:15:34;2.22;;;0.60;;
56299;SDS011;42209;6.376;-10.782;2022-10-16T14:18:03;3.15;;;1.00;;
56299;SDS011;42209;6.376;-10.782;2022-10-16T14:20:33;2.20;;;1.00;;
56299;SDS011;42209;6.376;-10.782;2022-10-16T14:23:18;1.98;;;0.70;;
56299;SDS011;42209;6.376;-10.782;2022-10-16T14:29:01;1.23;;;0.52;;
56299;SDS011;42209;6.376;-10.782;2022-10-16T14:31:38;2.30;;;0.57;;
56299;SDS011;42209;6.376;-10.782;2022-10-16T14:34:25;1.73;;;0.38;;
56299;SDS011;42209;6.376;-10.782;2022-10-16T14:37:00;1.60;;;0.43;;
56299;SDS011;42209;6.376;-10.782;2022-10-16T14:39:51;1.83;;;0.77;;
56299;SDS011;42209;6.376;-10.782;2022-10-16T14:42:20;1.80;;;0.63;;
56299;SDS011;42209;6.376;-10.782;2022-10-16T14:44:53;3.92;;;0.60;;
56299;SDS011;42209;6.376;-10.782;2022-10-16T14:47:22;2.20;;;1.00;;
56299;SDS011;42209;6.376;-10.782;2022-10-16T14:49:53;2.47;;;0.70;;
56299;SDS011;42209;6.376;-10.782;2022-10-16T14:52:22;1.65;;;0.60;;
56299;SDS011;42209;6.376;-10.782;2022-10-16T14:54:50;2.20;;;0.60;;
56299;SDS011;42209;6.376;-10.782;2022-10-16T14:59:48;2.95;;;0.88;;
56299;SDS011;42209;6.376;-10.782;2022-10-16T15:04:48;2.08;;;0.70;;
56299;SDS011;42209;6.376;-10.782;2022-10-16T15:07:16;2.25;;;0.50;;
56299;SDS011;42209;6.376;-10.782;2022-10-16T15:09:44;1.92;;;0.60;;
56299;SDS011;42209;6.376;-10.782;2022-10-16T15:12:16;2.65;;;0.85;;
56299;SDS011;42209;6.376;-10.782;2022-10-16T15:14:44;1.80;;;0.90;;
56299;SDS011;42209;6.376;-10.782;2022-10-16T15:17:12;2.53;;;0.77;;
56299;SDS011;42209;6.376;-10.782;2022-10-16T15:19:45;2.80;;;0.57;;
56299;SDS011;42209;6.376;-10.782;2022-10-16T15:22:13;2.20;;;0.68;;
56299;SDS011;42209;6.376;-10.782;2022-10-16T15:24:42;1.17;;;0.40;;
56299;SDS011;42209;6.376;-10.782;2022-10-16T15:27:10;5.18;;;0.80;;
56299;SDS011;42209;6.376;-10.782;2022-10-16T15:29:38;1.35;;;0.45;;
56299;SDS011;42209;6.376;-10.782;2022-10-16T15:32:08;3.17;;;0.60;;
56299;SDS011;42209;6.376;-10.782;2022-10-16T15:34:37;2.03;;;0.82;;
56299;SDS011;42209;6.376;-10.782;2022-10-16T15:37:05;2.17;;;0.73;;
56299;SDS011;42209;6.376;-10.782;2022-10-16T15:39:33;2.25;;;0.75;;
56299;SDS011;42209;6.376;-10.782;2022-10-16T15:42:07;2.88;;;0.77;;
56299;SDS011;42209;6.376;-10.782;2022-10-16T15:44:35;2.83;;;0.75;;
56299;SDS011;42209;6.376;-10.782;2022-10-16T15:47:03;2.97;;;0.65;;
56299;SDS011;42209;6.376;-10.782;2022-10-16T15:49:31;2.22;;;0.80;;
56299;SDS011;42209;6.376;-10.782;2022-10-16T15:51:59;3.35;;;0.55;;
56299;SDS011;42209;6.376;-10.782;2022-10-16T15:54:27;1.40;;;0.50;;
56299;SDS011;42209;6.376;-10.782;2022-10-16T15:56:56;1.23;;;0.65;;
56299;SDS011;42209;6.376;-10.782;2022-10-16T15:59:24;1.85;;;0.90;;
56299;SDS011;42209;6.376;-10.782;2022-10-16T16:01:52;2.47;;;0.73;;
56299;SDS011;42209;6.376;-10.782;2022-10-16T16:04:20;1.80;;;0.77;;
56299;SDS011;42209;6.376;-10.782;2022-10-16T16:07:09;1.80;;;0.50;;
56299;SDS011;42209;6.376;-10.782;2022-10-16T16:12:05;2.65;;;0.40;;
56299;SDS011;42209;6.376;-10.782;2022-10-16T16:14:33;1.58;;;0.50;;
56299;SDS011;42209;6.376;-10.782;2022-10-16T16:17:04;1.25;;;0.50;;
56299;SDS011;42209;6.376;-10.782;2022-10-16T16:19:32;1.95;;;0.50;;
56299;SDS011;42209;6.376;-10.782;2022-10-16T16:22:01;0.88;;;0.30;;
56299;SDS011;42209;6.376;-10.782;2022-10-16T16:24:32;1.60;;;0.52;;
56299;SDS011;42209;6.376;-10.782;2022-10-16T16:27:01;2.47;;;0.40;;
56299;SDS011;42209;6.376;-10.782;2022-10-16T16:29:34;2.42;;;0.40;;
56299;SDS011;42209;6.376;-10.782;2022-10-16T16:32:02;1.52;;;0.63;;
56299;SDS011;42209;6.376;-10.782;2022-10-16T16:34:31;2.45;;;0.40;;
56299;SDS011;42209;6.376;-10.782;2022-10-16T16:36:59;2.33;;;0.50;;
56299;SDS011;42209;6.376;-10.782;2022-10-16T16:39:27;2.17;;;0.60;;
56299;SDS011;42209;6.376;-10.782;2022-10-16T16:41:56;1.38;;;0.55;;
56299;SDS011;42209;6.376;-10.782;2022-10-16T16:44:24;2.85;;;0.63;;
56299;SDS011;42209;6.376;-10.782;2022-10-16T16:46:52;2.15;;;0.68;;
56299;SDS011;42209;6.376;-10.782;2022-10-16T16:49:21;1.90;;;0.50;;
56299;SDS011;42209;6.376;-10.782;2022-10-16T16:51:49;2.78;;;0.93;;
56299;SDS011;42209;6.376;-10.782;2022-10-16T16:54:17;1.10;;;0.40;;
56299;SDS011;42209;6.376;-10.782;2022-10-16T16:56:45;1.92;;;0.60;;
56299;SDS011;42209;6.376;-10.782;2022-10-16T16:59:15;1.42;;;0.60;;
56299;SDS011;42209;6.376;-10.782;2022-10-16T17:01:46;1.40;;;0.40;;
56299;SDS011;42209;6.376;-10.782;2022-10-16T17:04:21;1.40;;;0.40;;
56299;SDS011;42209;6.376;-10.782;2022-10-16T17:06:49;1.33;;;0.40;;
56299;SDS011;42209;6.376;-10.782;2022-10-16T17:09:19;1.33;;;0.35;;
56299;SDS011;42209;6.376;-10.782;2022-10-16T17:11:48;1.10;;;0.40;;
56299;SDS011;42209;6.376;-10.782;2022-10-16T17:14:16;1.95;;;0.40;;
56299;SDS011;42209;6.376;-10.782;2022-10-16T17:16:45;1.02;;;0.30;;
56299;SDS011;42209;6.376;-10.782;2022-10-16T17:19:14;1.23;;;0.40;;
56299;SDS011;42209;6.376;-10.782;2022-10-16T17:21:44;1.60;;;0.65;;
56299;SDS011;42209;6.376;-10.782;2022-10-16T17:24:15;3.58;;;0.60;;
56299;SDS011;42209;6.376;-10.782;2022-10-16T17:26:43;1.25;;;0.50;;
56299;SDS011;42209;6.376;-10.782;2022-10-16T17:29:11;2.85;;;0.77;;
56299;SDS011;42209;6.376;-10.782;2022-10-16T17:31:39;2.80;;;1.48;;